sensor_id;sensor_type;location;lat;lon;timestamp;pressure;altitude;pressure_sealevel;temperature;humidity
29825;BME280;16713;52.916;12.834;2024-02-21T00:00:36;101375.16;;;7.23;71.98
29825;BME280;16713;52.916;12.834;2024-02-21T00:03:04;101377.22;;;7.26;71.06
29825;BME280;16713;52.916;12.834;2024-02-21T00:05:31;101374.00;;;7.33;72.17
29825;BME280;16713;52.916;12.834;2024-02-21T00:07:59;101373.53;;;7.31;72.10
29825;BME280;16713;52.916;12.834;2024-02-21T00:10:26;101370.47;;;7.33;70.10
29825;BME280;16713;52.916;12.834;2024-02-21T00:12:52;101364.22;;;7.32;71.25
29825;BME280;16713;52.916;12.834;2024-02-21T00:15:19;101367.28;;;7.31;71.04
29825;BME280;16713;52.916;12.834;2024-02-21T00:17:45;101360.81;;;7.26;71.92
29825;BME280;16713;52.916;12.834;2024-02-21T00:20:12;101367.53;;;7.29;71.63
29825;BME280;16713;52.916;12.834;2024-02-21T00:22:38;101357.59;;;7.33;71.87
29825;BME280;16713;52.916;12.834;2024-02-21T00:25:05;101360.66;;;7.32;70.38
29825;BME280;16713;52.916;12.834;2024-02-21T00:27:32;101350.00;;;7.30;72.09
29825;BME280;16713;52.916;12.834;2024-02-21T00:29:58;101356.13;;;7.36;70.13
29825;BME280;16713;52.916;12.834;2024-02-21T00:32:25;101354.84;;;7.33;70.27
29825;BME280;16713;52.916;12.834;2024-02-21T00:34:52;101340.84;;;7.35;70.09
29825;BME280;16713;52.916;12.834;2024-02-21T00:37:18;101349.69;;;7.40;71.36
29825;BME280;16713;52.916;12.834;2024-02-21T00:39:45;101343.41;;;7.40;70.56
29825;BME280;16713;52.916;12.834;2024-02-21T00:42:11;101340.31;;;7.41;70.97
29825;BME280;16713;52.916;12.834;2024-02-21T00:44:38;101346.28;;;7.43;70.56
29825;BME280;16713;52.916;12.834;2024-02-21T00:47:04;101336.78;;;7.41;69.76
29825;BME280;16713;52.916;12.834;2024-02-21T00:49:31;101335.59;;;7.50;70.40
29825;BME280;16713;52.916;12.834;2024-02-21T00:51:57;101338.22;;;7.47;70.50
29825;BME280;16713;52.916;12.834;2024-02-21T00:54:24;101334.00;;;7.49;70.94
29825;BME280;16713;52.916;12.834;2024-02-21T00:56:53;101328.38;;;7.46;70.11
29825;BME280;16713;52.916;12.834;2024-02-21T00:59:20;101323.97;;;7.53;69.66
29825;BME280;16713;52.916;12.834;2024-02-21T01:01:46;101326.25;;;7.51;70.45
29825;BME280;16713;52.916;12.834;2024-02-21T01:04:12;101329.34;;;7.50;69.36
29825;BME280;16713;52.916;12.834;2024-02-21T01:06:39;101320.63;;;7.48;70.80
29825;BME280;16713;52.916;12.834;2024-02-21T01:09:09;101315.03;;;7.44;70.20
29825;BME280;16713;52.916;12.834;2024-02-21T01:11:35;101317.91;;;7.48;70.36
29825;BME280;16713;52.916;12.834;2024-02-21T01:14:02;101316.09;;;7.52;70.44
29825;BME280;16713;52.916;12.834;2024-02-21T01:16:29;101312.09;;;7.49;70.33
29825;BME280;16713;52.916;12.834;2024-02-21T01:18:55;101306.75;;;7.53;69.71
29825;BME280;16713;52.916;12.834;2024-02-21T01:21:22;101305.75;;;7.57;69.34
29825;BME280;16713;52.916;12.834;2024-02-21T01:23:48;101300.47;;;7.52;68.88
29825;BME280;16713;52.916;12.834;2024-02-21T01:26:14;101302.53;;;7.55;68.97
29825;BME280;16713;52.916;12.834;2024-02-21T01:28:41;101299.28;;;7.62;69.95
29825;BME280;16713;52.916;12.834;2024-02-21T01:31:08;101300.75;;;7.59;68.65
29825;BME280;16713;52.916;12.834;2024-02-21T01:33:34;101293.56;;;7.55;68.60
29825;BME280;16713;52.916;12.834;2024-02-21T01:36:04;101298.03;;;7.59;68.78
29825;BME280;16713;52.916;12.834;2024-02-21T01:38:34;101290.06;;;7.66;69.17
29825;BME280;16713;52.916;12.834;2024-02-21T01:41:01;101286.22;;;7.67;68.84
29825;BME280;16713;52.916;12.834;2024-02-21T01:43:28;101285.25;;;7.63;69.23
29825;BME280;16713;52.916;12.834;2024-02-21T01:45:57;101280.25;;;7.65;69.93
29825;BME280;16713;52.916;12.834;2024-02-21T01:48:24;101281.50;;;7.68;68.74
29825;BME280;16713;52.916;12.834;2024-02-21T01:50:54;101285.94;;;7.81;68.48
29825;BME280;16713;52.916;12.834;2024-02-21T01:53:22;101279.38;;;7.73;68.93
29825;BME280;16713;52.916;12.834;2024-02-21T01:55:49;101273.78;;;7.70;70.14
29825;BME280;16713;52.916;12.834;2024-02-21T01:58:16;101273.63;;;7.66;69.46
29825;BME280;16713;52.916;12.834;2024-02-21T02:00:46;101262.69;;;7.66;70.43
29825;BME280;16713;52.916;12.834;2024-02-21T02:03:14;101258.25;;;7.53;70.82
29825;BME280;16713;52.916;12.834;2024-02-21T02:05:47;101259.75;;;7.51;70.61
29825;BME280;16713;52.916;12.834;2024-02-21T02:08:15;101253.47;;;7.50;72.26
29825;BME280;16713;52.916;12.834;2024-02-21T02:10:42;101248.59;;;7.35;71.86
29825;BME280;16713;52.916;12.834;2024-02-21T02:13:09;101252.44;;;7.34;72.94
29825;BME280;16713;52.916;12.834;2024-02-21T02:15:43;101245.44;;;7.45;72.88
29825;BME280;16713;52.916;12.834;2024-02-21T02:18:11;101230.16;;;7.44;72.23
29825;BME280;16713;52.916;12.834;2024-02-21T02:20:39;101236.34;;;7.33;72.43
29825;BME280;16713;52.916;12.834;2024-02-21T02:25:48;101222.97;;;7.40;73.93
29825;BME280;16713;52.916;12.834;2024-02-21T02:28:17;101222.47;;;7.38;72.56
29825;BME280;16713;52.916;12.834;2024-02-21T02:30:44;101214.78;;;7.31;73.43
29825;BME280;16713;52.916;12.834;2024-02-21T02:33:11;101214.03;;;7.31;72.96
29825;BME280;16713;52.916;12.834;2024-02-21T02:35:37;101207.53;;;7.35;73.90
29825;BME280;16713;52.916;12.834;2024-02-21T02:38:04;101198.19;;;7.36;74.10
29825;BME280;16713;52.916;12.834;2024-02-21T02:40:32;101201.88;;;7.40;73.97
29825;BME280;16713;52.916;12.834;2024-02-21T02:42:59;101200.72;;;7.41;73.85
29825;BME280;16713;52.916;12.834;2024-02-21T02:45:26;101189.78;;;7.41;72.95
29825;BME280;16713;52.916;12.834;2024-02-21T02:47:53;101200.53;;;7.46;74.57
29825;BME280;16713;52.916;12.834;2024-02-21T02:50:20;101194.78;;;7.39;73.40
29825;BME280;16713;52.916;12.834;2024-02-21T02:52:47;101201.72;;;7.37;73.16
29825;BME280;16713;52.916;12.834;2024-02-21T02:55:14;101207.88;;;7.34;74.33
29825;BME280;16713;52.916;12.834;2024-02-21T02:57:40;101196.25;;;7.37;74.25
29825;BME280;16713;52.916;12.834;2024-02-21T03:00:09;101187.56;;;7.35;74.69
29825;BME280;16713;52.916;12.834;2024-02-21T03:02:39;101184.31;;;7.41;74.70
29825;BME280;16713;52.916;12.834;2024-02-21T03:05:19;101177.56;;;7.39;74.84
29825;BME280;16713;52.916;12.834;2024-02-21T03:07:48;101175.63;;;7.39;73.50
29825;BME280;16713;52.916;12.834;2024-02-21T03:10:15;101162.69;;;7.48;74.89
29825;BME280;16713;52.916;12.834;2024-02-21T03:12:45;101161.25;;;7.42;73.12
29825;BME280;16713;52.916;12.834;2024-02-21T03:15:13;101161.59;;;7.41;74.11
29825;BME280;16713;52.916;12.834;2024-02-21T03:17:40;101155.44;;;7.44;73.41
29825;BME280;16713;52.916;12.834;2024-02-21T03:20:08;101148.25;;;7.39;73.46
29825;BME280;16713;52.916;12.834;2024-02-21T03:22:38;101143.97;;;7.50;73.60
29825;BME280;16713;52.916;12.834;2024-02-21T03:25:06;101144.50;;;7.44;74.68
29825;BME280;16713;52.916;12.834;2024-02-21T03:27:33;101148.38;;;7.43;74.73
29825;BME280;16713;52.916;12.834;2024-02-21T03:30:00;101130.09;;;7.35;74.74
29825;BME280;16713;52.916;12.834;2024-02-21T03:32:26;101134.75;;;7.34;74.63
29825;BME280;16713;52.916;12.834;2024-02-21T03:34:54;101137.75;;;7.41;74.74
29825;BME280;16713;52.916;12.834;2024-02-21T03:37:21;101132.69;;;7.31;73.75
29825;BME280;16713;52.916;12.834;2024-02-21T03:39:48;101132.50;;;7.36;74.81
29825;BME280;16713;52.916;12.834;2024-02-21T03:42:14;101127.03;;;7.36;74.08
29825;BME280;16713;52.916;12.834;2024-02-21T03:44:41;101127.69;;;7.33;75.43
29825;BME280;16713;52.916;12.834;2024-02-21T03:47:07;101128.34;;;7.30;75.48
29825;BME280;16713;52.916;12.834;2024-02-21T03:49:37;101119.63;;;7.37;73.89
29825;BME280;16713;52.916;12.834;2024-02-21T03:52:04;101123.03;;;7.34;74.55
29825;BME280;16713;52.916;12.834;2024-02-21T03:54:30;101119.63;;;7.37;74.66
29825;BME280;16713;52.916;12.834;2024-02-21T03:56:57;101109.91;;;7.39;74.13
29825;BME280;16713;52.916;12.834;2024-02-21T03:59:23;101097.13;;;7.31;75.06
29825;BME280;16713;52.916;12.834;2024-02-21T04:01:52;101098.44;;;7.46;73.39
29825;BME280;16713;52.916;12.834;2024-02-21T04:04:20;101081.19;;;7.45;73.80
29825;BME280;16713;52.916;12.834;2024-02-21T04:06:50;101086.47;;;7.50;73.67
29825;BME280;16713;52.916;12.834;2024-02-21T04:09:17;101081.53;;;7.44;73.88
29825;BME280;16713;52.916;12.834;2024-02-21T04:11:44;101084.53;;;7.51;73.85
29825;BME280;16713;52.916;12.834;2024-02-21T04:14:11;101074.34;;;7.39;74.36
29825;BME280;16713;52.916;12.834;2024-02-21T04:16:38;101070.94;;;7.42;73.53
29825;BME280;16713;52.916;12.834;2024-02-21T04:19:06;101059.19;;;7.42;74.34
29825;BME280;16713;52.916;12.834;2024-02-21T04:21:32;101054.63;;;7.46;74.62
29825;BME280;16713;52.916;12.834;2024-02-21T04:23:59;101069.47;;;7.45;73.19
29825;BME280;16713;52.916;12.834;2024-02-21T04:26:26;101065.72;;;7.49;74.56
29825;BME280;16713;52.916;12.834;2024-02-21T04:28:52;101071.88;;;7.46;73.61
29825;BME280;16713;52.916;12.834;2024-02-21T04:31:19;101077.53;;;7.41;74.74
29825;BME280;16713;52.916;12.834;2024-02-21T04:33:45;101073.22;;;7.40;73.73
29825;BME280;16713;52.916;12.834;2024-02-21T04:36:12;101072.44;;;7.52;73.34
29825;BME280;16713;52.916;12.834;2024-02-21T04:38:39;101060.50;;;7.56;74.09
29825;BME280;16713;52.916;12.834;2024-02-21T04:41:07;101051.81;;;7.54;74.30
29825;BME280;16713;52.916;12.834;2024-02-21T04:43:34;101055.56;;;7.50;74.06
29825;BME280;16713;52.916;12.834;2024-02-21T04:46:01;101051.97;;;7.37;73.56
29825;BME280;16713;52.916;12.834;2024-02-21T04:48:27;101048.47;;;7.49;73.43
29825;BME280;16713;52.916;12.834;2024-02-21T04:50:54;101046.63;;;7.41;73.72
29825;BME280;16713;52.916;12.834;2024-02-21T04:53:21;101049.81;;;7.31;74.87
29825;BME280;16713;52.916;12.834;2024-02-21T04:55:47;101053.81;;;7.33;73.52
29825;BME280;16713;52.916;12.834;2024-02-21T04:58:13;101030.84;;;7.25;75.29
29825;BME280;16713;52.916;12.834;2024-02-21T05:00:40;101027.59;;;7.32;75.04
29825;BME280;16713;52.916;12.834;2024-02-21T05:03:07;101030.75;;;7.34;74.95
29825;BME280;16713;52.916;12.834;2024-02-21T05:05:33;101031.09;;;7.33;73.81
29825;BME280;16713;52.916;12.834;2024-02-21T05:08:00;101027.59;;;7.32;73.99
29825;BME280;16713;52.916;12.834;2024-02-21T05:10:26;101039.31;;;7.33;74.16
29825;BME280;16713;52.916;12.834;2024-02-21T05:12:53;101037.16;;;7.38;73.67
29825;BME280;16713;52.916;12.834;2024-02-21T05:15:19;101035.44;;;7.34;75.06
29825;BME280;16713;52.916;12.834;2024-02-21T05:17:46;101028.03;;;7.34;75.22
29825;BME280;16713;52.916;12.834;2024-02-21T05:20:12;101025.81;;;7.27;74.74
29825;BME280;16713;52.916;12.834;2024-02-21T05:22:39;101021.94;;;7.28;73.72
29825;BME280;16713;52.916;12.834;2024-02-21T05:25:06;101017.34;;;7.41;75.17
29825;BME280;16713;52.916;12.834;2024-02-21T05:27:33;101003.19;;;7.39;74.81
29825;BME280;16713;52.916;12.834;2024-02-21T05:29:59;101001.25;;;7.40;73.97
29825;BME280;16713;52.916;12.834;2024-02-21T05:32:26;100994.88;;;7.48;74.67
29825;BME280;16713;52.916;12.834;2024-02-21T05:34:53;100994.88;;;7.48;73.96
29825;BME280;16713;52.916;12.834;2024-02-21T05:37:19;100993.84;;;7.52;72.99
29825;BME280;16713;52.916;12.834;2024-02-21T05:39:46;100996.59;;;7.52;73.32
29825;BME280;16713;52.916;12.834;2024-02-21T05:42:12;100994.06;;;7.47;73.47
29825;BME280;16713;52.916;12.834;2024-02-21T05:44:39;100997.47;;;7.32;74.38
29825;BME280;16713;52.916;12.834;2024-02-21T05:47:05;101001.13;;;7.36;74.77
29825;BME280;16713;52.916;12.834;2024-02-21T05:49:36;101003.31;;;7.43;73.52
29825;BME280;16713;52.916;12.834;2024-02-21T05:52:04;101004.69;;;7.49;73.51
29825;BME280;16713;52.916;12.834;2024-02-21T05:54:32;100985.66;;;7.52;74.25
29825;BME280;16713;52.916;12.834;2024-02-21T05:56:59;100992.28;;;7.51;73.30
29825;BME280;16713;52.916;12.834;2024-02-21T05:59:25;100994.41;;;7.46;73.84
29825;BME280;16713;52.916;12.834;2024-02-21T06:01:57;101005.97;;;7.51;73.76
29825;BME280;16713;52.916;12.834;2024-02-21T06:04:24;101002.41;;;7.51;72.60
29825;BME280;16713;52.916;12.834;2024-02-21T06:06:51;101012.59;;;7.62;74.01
29825;BME280;16713;52.916;12.834;2024-02-21T06:09:18;101009.25;;;7.57;72.93
29825;BME280;16713;52.916;12.834;2024-02-21T06:11:44;101004.72;;;7.61;74.03
29825;BME280;16713;52.916;12.834;2024-02-21T06:14:12;101015.31;;;7.62;72.62
29825;BME280;16713;52.916;12.834;2024-02-21T06:16:39;101008.13;;;7.58;74.16
29825;BME280;16713;52.916;12.834;2024-02-21T06:19:06;101012.81;;;7.57;72.53
29825;BME280;16713;52.916;12.834;2024-02-21T06:21:36;101012.13;;;7.48;72.78
29825;BME280;16713;52.916;12.834;2024-02-21T06:24:03;101016.69;;;7.56;73.67
29825;BME280;16713;52.916;12.834;2024-02-21T06:26:30;101017.81;;;7.55;74.25
29825;BME280;16713;52.916;12.834;2024-02-21T06:28:56;101015.75;;;7.52;74.37
29825;BME280;16713;52.916;12.834;2024-02-21T06:31:23;101013.84;;;7.53;73.36
29825;BME280;16713;52.916;12.834;2024-02-21T06:33:50;101017.13;;;7.58;74.33
29825;BME280;16713;52.916;12.834;2024-02-21T06:36:17;101007.66;;;7.56;74.07
29825;BME280;16713;52.916;12.834;2024-02-21T06:38:43;101007.34;;;7.57;73.21
29825;BME280;16713;52.916;12.834;2024-02-21T06:41:17;101015.41;;;7.54;73.68
29825;BME280;16713;52.916;12.834;2024-02-21T06:43:47;101004.34;;;7.50;73.78
29825;BME280;16713;52.916;12.834;2024-02-21T06:46:28;101008.91;;;7.46;73.87
29825;BME280;16713;52.916;12.834;2024-02-21T06:48:56;101006.63;;;7.48;72.91
29825;BME280;16713;52.916;12.834;2024-02-21T06:51:24;101011.66;;;7.46;74.22
29825;BME280;16713;52.916;12.834;2024-02-21T06:53:51;101021.09;;;7.49;73.17
29825;BME280;16713;52.916;12.834;2024-02-21T06:56:17;101016.19;;;7.42;74.60
29825;BME280;16713;52.916;12.834;2024-02-21T06:58:44;101010.16;;;7.49;74.02
29825;BME280;16713;52.916;12.834;2024-02-21T07:01:11;101003.44;;;7.46;74.17
29825;BME280;16713;52.916;12.834;2024-02-21T07:03:38;100999.19;;;7.49;74.44
29825;BME280;16713;52.916;12.834;2024-02-21T07:06:04;100997.97;;;7.46;74.50
29825;BME280;16713;52.916;12.834;2024-02-21T07:08:31;101008.09;;;7.46;74.52
29825;BME280;16713;52.916;12.834;2024-02-21T07:10:57;101007.75;;;7.47;73.94
29825;BME280;16713;52.916;12.834;2024-02-21T07:13:24;101012.56;;;7.50;73.39
29825;BME280;16713;52.916;12.834;2024-02-21T07:15:51;101007.06;;;7.50;73.21
29825;BME280;16713;52.916;12.834;2024-02-21T07:18:17;101009.25;;;7.45;74.35
29825;BME280;16713;52.916;12.834;2024-02-21T07:20:44;101009.25;;;7.45;74.01
29825;BME280;16713;52.916;12.834;2024-02-21T07:23:10;101010.38;;;7.44;74.71
29825;BME280;16713;52.916;12.834;2024-02-21T07:25:37;101015.63;;;7.49;73.42
29825;BME280;16713;52.916;12.834;2024-02-21T07:28:04;101016.56;;;7.53;73.04
29825;BME280;16713;52.916;12.834;2024-02-21T07:30:30;101018.28;;;7.57;73.51
29825;BME280;16713;52.916;12.834;2024-02-21T07:32:57;101013.03;;;7.52;73.73
29825;BME280;16713;52.916;12.834;2024-02-21T07:35:23;101013.69;;;7.49;74.48
29825;BME280;16713;52.916;12.834;2024-02-21T07:37:50;101021.22;;;7.52;73.76
29825;BME280;16713;52.916;12.834;2024-02-21T07:40:17;101015.84;;;7.44;73.56
29825;BME280;16713;52.916;12.834;2024-02-21T07:42:44;101020.06;;;7.41;74.83
29825;BME280;16713;52.916;12.834;2024-02-21T07:45:16;101019.25;;;7.41;74.66
29825;BME280;16713;52.916;12.834;2024-02-21T07:47:44;101017.81;;;7.43;74.17
29825;BME280;16713;52.916;12.834;2024-02-21T07:50:11;101024.88;;;7.44;74.05
29825;BME280;16713;52.916;12.834;2024-02-21T07:52:37;101007.53;;;7.40;74.68
29825;BME280;16713;52.916;12.834;2024-02-21T07:55:04;101014.03;;;7.48;73.93
29825;BME280;16713;52.916;12.834;2024-02-21T07:57:30;101005.13;;;7.39;73.66
29825;BME280;16713;52.916;12.834;2024-02-21T07:59:57;101009.38;;;7.48;74.14
29825;BME280;16713;52.916;12.834;2024-02-21T08:02:23;101009.03;;;7.50;74.47
29825;BME280;16713;52.916;12.834;2024-02-21T08:04:50;100997.63;;;7.48;74.17
29825;BME280;16713;52.916;12.834;2024-02-21T08:07:16;100994.88;;;7.48;75.11
29825;BME280;16713;52.916;12.834;2024-02-21T08:09:43;101004.34;;;7.50;73.71
29825;BME280;16713;52.916;12.834;2024-02-21T08:12:09;101000.81;;;7.50;74.78
29825;BME280;16713;52.916;12.834;2024-02-21T08:14:36;101004.00;;;7.52;73.62
29825;BME280;16713;52.916;12.834;2024-02-21T08:17:03;101007.53;;;7.52;74.67
29825;BME280;16713;52.916;12.834;2024-02-21T08:19:30;101009.72;;;7.59;74.36
29825;BME280;16713;52.916;12.834;2024-02-21T08:21:57;101014.53;;;7.62;74.76
29825;BME280;16713;52.916;12.834;2024-02-21T08:24:23;101012.72;;;7.66;74.75
29825;BME280;16713;52.916;12.834;2024-02-21T08:26:50;101015.25;;;7.71;74.13
29825;BME280;16713;52.916;12.834;2024-02-21T08:29:16;101012.81;;;7.69;74.71
29825;BME280;16713;52.916;12.834;2024-02-21T08:31:43;101002.19;;;7.68;74.01
29825;BME280;16713;52.916;12.834;2024-02-21T08:34:09;101007.03;;;7.71;74.56
29825;BME280;16713;52.916;12.834;2024-02-21T08:36:36;101009.84;;;7.74;75.23
29825;BME280;16713;52.916;12.834;2024-02-21T08:39:03;101003.59;;;7.74;75.28
29825;BME280;16713;52.916;12.834;2024-02-21T08:41:34;101003.94;;;7.72;75.31
29825;BME280;16713;52.916;12.834;2024-02-21T08:44:22;100990.47;;;7.67;74.26
29825;BME280;16713;52.916;12.834;2024-02-21T08:46:49;100996.16;;;7.74;75.69
29825;BME280;16713;52.916;12.834;2024-02-21T08:49:16;100992.72;;;7.77;74.56
29825;BME280;16713;52.916;12.834;2024-02-21T08:51:43;100988.75;;;7.75;73.92
29825;BME280;16713;52.916;12.834;2024-02-21T08:54:10;100993.53;;;7.78;74.78
29825;BME280;16713;52.916;12.834;2024-02-21T08:56:36;100992.41;;;7.67;74.72
29825;BME280;16713;52.916;12.834;2024-02-21T08:59:03;100989.56;;;7.75;74.48
29825;BME280;16713;52.916;12.834;2024-02-21T09:01:30;100998.56;;;7.76;74.28
29825;BME280;16713;52.916;12.834;2024-02-21T09:03:57;100990.00;;;7.77;74.64
29825;BME280;16713;52.916;12.834;2024-02-21T09:06:24;100982.94;;;7.76;74.49
29825;BME280;16713;52.916;12.834;2024-02-21T09:08:51;100984.06;;;7.87;75.24
29825;BME280;16713;52.916;12.834;2024-02-21T09:11:17;100978.50;;;7.96;74.85
29825;BME280;16713;52.916;12.834;2024-02-21T09:13:44;100983.84;;;8.04;74.21
29825;BME280;16713;52.916;12.834;2024-02-21T09:16:10;100981.34;;;7.99;73.56
29825;BME280;16713;52.916;12.834;2024-02-21T09:18:37;100980.88;;;7.97;74.31
29825;BME280;16713;52.916;12.834;2024-02-21T09:21:03;100980.19;;;8.00;73.99
29825;BME280;16713;52.916;12.834;2024-02-21T09:23:30;100986.13;;;8.02;74.40
29825;BME280;16713;52.916;12.834;2024-02-21T09:25:58;100988.06;;;8.02;73.80
29825;BME280;16713;52.916;12.834;2024-02-21T09:28:27;100999.13;;;7.93;74.32
29825;BME280;16713;52.916;12.834;2024-02-21T09:30:54;100979.72;;;7.98;73.37
29825;BME280;16713;52.916;12.834;2024-02-21T09:33:20;100982.25;;;8.03;73.58
29825;BME280;16713;52.916;12.834;2024-02-21T09:35:57;100973.69;;;8.05;73.98
29825;BME280;16713;52.916;12.834;2024-02-21T09:38:24;100974.84;;;8.04;73.70
29825;BME280;16713;52.916;12.834;2024-02-21T09:41:00;100969.69;;;8.02;74.28
29825;BME280;16713;52.916;12.834;2024-02-21T09:43:29;100971.63;;;8.02;74.61
29825;BME280;16713;52.916;12.834;2024-02-21T09:45:56;100967.16;;;8.09;74.42
29825;BME280;16713;52.916;12.834;2024-02-21T09:51:28;100969.00;;;8.05;73.46
29825;BME280;16713;52.916;12.834;2024-02-21T09:53:57;100964.88;;;8.11;74.10
29825;BME280;16713;52.916;12.834;2024-02-21T09:56:40;100972.63;;;8.09;74.61
29825;BME280;16713;52.916;12.834;2024-02-21T09:59:07;100969.78;;;8.18;74.44
29825;BME280;16713;52.916;12.834;2024-02-21T10:01:34;100976.53;;;8.20;74.06
29825;BME280;16713;52.916;12.834;2024-02-21T10:04:01;100984.41;;;8.22;73.44
29825;BME280;16713;52.916;12.834;2024-02-21T10:06:29;100985.06;;;8.31;73.89
29825;BME280;16713;52.916;12.834;2024-02-21T10:08:56;100989.09;;;8.21;73.54
29825;BME280;16713;52.916;12.834;2024-02-21T10:11:23;100993.19;;;8.27;73.11
29825;BME280;16713;52.916;12.834;2024-02-21T10:13:50;100999.34;;;8.24;73.12
29825;BME280;16713;52.916;12.834;2024-02-21T10:16:17;100999.47;;;8.28;73.51
29825;BME280;16713;52.916;12.834;2024-02-21T10:18:44;100995.03;;;8.23;73.60
29825;BME280;16713;52.916;12.834;2024-02-21T10:21:10;101004.50;;;8.26;74.17
29825;BME280;16713;52.916;12.834;2024-02-21T10:23:44;100993.19;;;8.27;72.96
29825;BME280;16713;52.916;12.834;2024-02-21T10:26:11;100987.84;;;8.19;73.33
29825;BME280;16713;52.916;12.834;2024-02-21T10:28:38;100972.66;;;8.21;74.00
29825;BME280;16713;52.916;12.834;2024-02-21T10:31:26;100979.63;;;8.19;73.76
29825;BME280;16713;52.916;12.834;2024-02-21T10:33:58;100975.72;;;8.20;74.43
29825;BME280;16713;52.916;12.834;2024-02-21T10:36:25;100970.13;;;8.16;73.26
29825;BME280;16713;52.916;12.834;2024-02-21T10:38:53;100979.03;;;8.13;73.39
29825;BME280;16713;52.916;12.834;2024-02-21T10:41:21;100974.72;;;8.12;74.33
29825;BME280;16713;52.916;12.834;2024-02-21T10:43:53;100967.75;;;8.15;74.15
29825;BME280;16713;52.916;12.834;2024-02-21T10:46:23;100969.56;;;8.23;73.66
29825;BME280;16713;52.916;12.834;2024-02-21T10:49:06;100965.34;;;8.13;73.85
29825;BME280;16713;52.916;12.834;2024-02-21T10:51:34;100961.78;;;8.25;73.65
29825;BME280;16713;52.916;12.834;2024-02-21T10:54:20;100960.28;;;8.27;73.52
29825;BME280;16713;52.916;12.834;2024-02-21T10:56:51;100966.59;;;8.28;73.94
29825;BME280;16713;52.916;12.834;2024-02-21T10:59:18;100955.03;;;8.22;73.82
29825;BME280;16713;52.916;12.834;2024-02-21T11:01:45;100957.06;;;8.37;73.22
29825;BME280;16713;52.916;12.834;2024-02-21T11:04:12;100961.63;;;8.33;72.79
29825;BME280;16713;52.916;12.834;2024-02-21T11:06:40;100947.16;;;8.33;73.24
29825;BME280;16713;52.916;12.834;2024-02-21T11:09:09;100943.59;;;8.32;73.71
29825;BME280;16713;52.916;12.834;2024-02-21T11:11:45;100937.88;;;8.37;73.52
29825;BME280;16713;52.916;12.834;2024-02-21T11:14:19;100928.63;;;8.42;72.96
29825;BME280;16713;52.916;12.834;2024-02-21T11:16:46;100930.25;;;8.43;73.08
29825;BME280;16713;52.916;12.834;2024-02-21T11:19:21;100928.84;;;8.49;73.49
29825;BME280;16713;52.916;12.834;2024-02-21T11:21:49;100925.53;;;8.43;72.80
29825;BME280;16713;52.916;12.834;2024-02-21T11:24:32;100921.06;;;8.51;72.82
29825;BME280;16713;52.916;12.834;2024-02-21T11:27:08;100917.88;;;8.49;73.04
29825;BME280;16713;52.916;12.834;2024-02-21T11:29:40;100910.34;;;8.46;73.00
29825;BME280;16713;52.916;12.834;2024-02-21T11:32:14;100901.63;;;8.56;72.76
29825;BME280;16713;52.916;12.834;2024-02-21T11:34:52;100912.72;;;8.59;72.28
29825;BME280;16713;52.916;12.834;2024-02-21T11:37:18;100908.84;;;8.60;73.58
29825;BME280;16713;52.916;12.834;2024-02-21T11:39:45;100902.09;;;8.58;73.03
29825;BME280;16713;52.916;12.834;2024-02-21T11:42:12;100898.13;;;8.55;71.79
29825;BME280;16713;52.916;12.834;2024-02-21T11:44:39;100896.97;;;8.56;72.39
29825;BME280;16713;52.916;12.834;2024-02-21T11:47:06;100894.88;;;8.53;72.29
29825;BME280;16713;52.916;12.834;2024-02-21T11:49:45;100886.09;;;8.48;71.47
29825;BME280;16713;52.916;12.834;2024-02-21T11:52:12;100880.63;;;8.48;72.10
29825;BME280;16713;52.916;12.834;2024-02-21T11:54:42;100872.03;;;8.49;72.21
29825;BME280;16713;52.916;12.834;2024-02-21T11:57:10;100874.09;;;8.52;72.16
29825;BME280;16713;52.916;12.834;2024-02-21T11:59:40;100873.75;;;8.54;72.33
29825;BME280;16713;52.916;12.834;2024-02-21T12:02:07;100872.63;;;8.55;72.73
29825;BME280;16713;52.916;12.834;2024-02-21T12:04:34;100870.00;;;8.58;72.02
29825;BME280;16713;52.916;12.834;2024-02-21T12:07:01;100861.53;;;8.51;71.91
29825;BME280;16713;52.916;12.834;2024-02-21T12:09:30;100863.25;;;8.56;72.23
29825;BME280;16713;52.916;12.834;2024-02-21T12:12:01;100861.53;;;8.51;71.66
29825;BME280;16713;52.916;12.834;2024-02-21T12:14:30;100864.41;;;8.55;71.99
29825;BME280;16713;52.916;12.834;2024-02-21T12:16:58;100867.69;;;8.60;72.18
29825;BME280;16713;52.916;12.834;2024-02-21T12:19:24;100868.38;;;8.57;72.48
29825;BME280;16713;52.916;12.834;2024-02-21T12:21:51;100868.81;;;8.59;72.11
29825;BME280;16713;52.916;12.834;2024-02-21T12:24:25;100857.97;;;8.63;70.29
29825;BME280;16713;52.916;12.834;2024-02-21T12:26:52;100859.72;;;8.55;71.70
29825;BME280;16713;52.916;12.834;2024-02-21T12:29:20;100848.16;;;8.62;72.17
29825;BME280;16713;52.916;12.834;2024-02-21T12:31:47;100853.47;;;8.71;71.60
29825;BME280;16713;52.916;12.834;2024-02-21T12:34:15;100855.84;;;8.72;71.90
29825;BME280;16713;52.916;12.834;2024-02-21T12:36:45;100853.56;;;8.74;71.70
29825;BME280;16713;52.916;12.834;2024-02-21T12:39:14;100853.41;;;8.83;72.06
29825;BME280;16713;52.916;12.834;2024-02-21T12:41:43;100846.75;;;8.84;71.80
29825;BME280;16713;52.916;12.834;2024-02-21T12:44:10;100845.78;;;8.76;71.86
29825;BME280;16713;52.916;12.834;2024-02-21T12:46:38;100837.34;;;8.69;72.43
29825;BME280;16713;52.916;12.834;2024-02-21T12:49:06;100842.06;;;8.69;71.94
29825;BME280;16713;52.916;12.834;2024-02-21T12:51:35;100839.50;;;8.76;72.24
29825;BME280;16713;52.916;12.834;2024-02-21T12:54:02;100835.78;;;8.68;72.07
29825;BME280;16713;52.916;12.834;2024-02-21T12:56:31;100836.47;;;8.65;72.33
29825;BME280;16713;52.916;12.834;2024-02-21T12:58:58;100837.97;;;8.62;72.73